sensor_id;sensor_type;location;lat;lon;timestamp;temperature;humidity
70300;HTU21D;57704;51.112;5.878;2023-07-13T00:00:42;19.51;51.35
70300;HTU21D;57704;51.112;5.878;2023-07-13T00:03:08;19.50;51.57
70300;HTU21D;57704;51.112;5.878;2023-07-13T00:05:34;19.47;51.51
70300;HTU21D;57704;51.112;5.878;2023-07-13T00:08:00;19.43;51.81
70300;HTU21D;57704;51.112;5.878;2023-07-13T00:10:26;19.47;51.94
70300;HTU21D;57704;51.112;5.878;2023-07-13T00:12:52;19.54;51.76
70300;HTU21D;57704;51.112;5.878;2023-07-13T00:15:25;19.56;51.72
70300;HTU21D;57704;51.112;5.878;2023-07-13T00:17:54;19.54;51.76
70300;HTU21D;57704;51.112;5.878;2023-07-13T00:20:23;19.46;51.94
70300;HTU21D;57704;51.112;5.878;2023-07-13T00:22:51;19.38;52.19
70300;HTU21D;57704;51.112;5.878;2023-07-13T00:25:20;19.37;52.57
70300;HTU21D;57704;51.112;5.878;2023-07-13T00:27:48;19.28;52.49
70300;HTU21D;57704;51.112;5.878;2023-07-13T00:30:14;19.25;52.85
70300;HTU21D;57704;51.112;5.878;2023-07-13T00:32:40;19.18;52.88
70300;HTU21D;57704;51.112;5.878;2023-07-13T00:35:08;19.16;52.91
70300;HTU21D;57704;51.112;5.878;2023-07-13T00:37:34;19.11;53.17
70300;HTU21D;57704;51.112;5.878;2023-07-13T00:40:03;18.96;53.72
70300;HTU21D;57704;51.112;5.878;2023-07-13T00:42:29;18.84;54.00
70300;HTU21D;57704;51.112;5.878;2023-07-13T00:47:40;18.85;54.26
70300;HTU21D;57704;51.112;5.878;2023-07-13T00:50:09;18.82;54.27
70300;HTU21D;57704;51.112;5.878;2023-07-13T00:52:40;18.80;54.31
70300;HTU21D;57704;51.112;5.878;2023-07-13T00:55:08;18.80;54.42
70300;HTU21D;57704;51.112;5.878;2023-07-13T00:57:36;18.84;54.20
70300;HTU21D;57704;51.112;5.878;2023-07-13T01:00:05;18.92;54.21
70300;HTU21D;57704;51.112;5.878;2023-07-13T01:02:34;18.95;54.03
70300;HTU21D;57704;51.112;5.878;2023-07-13T01:05:00;18.96;54.10
70300;HTU21D;57704;51.112;5.878;2023-07-13T01:07:27;18.87;54.69
70300;HTU21D;57704;51.112;5.878;2023-07-13T01:09:56;18.79;54.75
70300;HTU21D;57704;51.112;5.878;2023-07-13T01:12:22;18.80;54.93
70300;HTU21D;57704;51.112;5.878;2023-07-13T01:14:48;18.78;54.92
70300;HTU21D;57704;51.112;5.878;2023-07-13T01:17:15;18.72;55.08
70300;HTU21D;57704;51.112;5.878;2023-07-13T01:19:43;18.70;55.21
70300;HTU21D;57704;51.112;5.878;2023-07-13T01:22:16;18.63;55.36
70300;HTU21D;57704;51.112;5.878;2023-07-13T01:24:46;18.63;55.55
70300;HTU21D;57704;51.112;5.878;2023-07-13T01:27:15;18.61;55.61
70300;HTU21D;57704;51.112;5.878;2023-07-13T01:29:44;18.58;56.13
70300;HTU21D;57704;51.112;5.878;2023-07-13T01:32:16;18.51;55.97
70300;HTU21D;57704;51.112;5.878;2023-07-13T01:34:42;18.53;55.90
70300;HTU21D;57704;51.112;5.878;2023-07-13T01:37:10;18.54;56.08
70300;HTU21D;57704;51.112;5.878;2023-07-13T01:39:37;18.55;55.93
70300;HTU21D;57704;51.112;5.878;2023-07-13T01:42:03;18.51;56.14
70300;HTU21D;57704;51.112;5.878;2023-07-13T01:44:29;18.55;56.30
70300;HTU21D;57704;51.112;5.878;2023-07-13T01:46:56;18.52;56.22
70300;HTU21D;57704;51.112;5.878;2023-07-13T01:49:21;18.39;56.55
70300;HTU21D;57704;51.112;5.878;2023-07-13T01:51:48;18.27;56.64
70300;HTU21D;57704;51.112;5.878;2023-07-13T01:54:14;18.20;57.26
70300;HTU21D;57704;51.112;5.878;2023-07-13T01:56:40;18.20;57.48
70300;HTU21D;57704;51.112;5.878;2023-07-13T01:59:08;18.10;58.08
70300;HTU21D;57704;51.112;5.878;2023-07-13T02:01:34;18.08;57.64
70300;HTU21D;57704;51.112;5.878;2023-07-13T02:04:00;18.11;57.56
70300;HTU21D;57704;51.112;5.878;2023-07-13T02:06:28;18.10;57.70
70300;HTU21D;57704;51.112;5.878;2023-07-13T02:08:55;18.11;57.77
70300;HTU21D;57704;51.112;5.878;2023-07-13T02:11:21;18.10;57.73
70300;HTU21D;57704;51.112;5.878;2023-07-13T02:13:47;18.08;58.04
70300;HTU21D;57704;51.112;5.878;2023-07-13T02:16:12;18.03;58.09
70300;HTU21D;57704;51.112;5.878;2023-07-13T02:18:38;18.02;58.15
70300;HTU21D;57704;51.112;5.878;2023-07-13T02:21:04;18.02;58.25
70300;HTU21D;57704;51.112;5.878;2023-07-13T02:23:30;18.06;58.22
70300;HTU21D;57704;51.112;5.878;2023-07-13T02:25:56;18.05;58.45
70300;HTU21D;57704;51.112;5.878;2023-07-13T02:28:22;18.00;58.65
70300;HTU21D;57704;51.112;5.878;2023-07-13T02:30:49;18.02;58.38
70300;HTU21D;57704;51.112;5.878;2023-07-13T02:33:15;18.06;58.61
70300;HTU21D;57704;51.112;5.878;2023-07-13T02:35:41;18.07;58.60
70300;HTU21D;57704;51.112;5.878;2023-07-13T02:38:07;18.04;58.54
70300;HTU21D;57704;51.112;5.878;2023-07-13T02:40:34;17.99;59.16
70300;HTU21D;57704;51.112;5.878;2023-07-13T02:43:01;17.90;58.90
70300;HTU21D;57704;51.112;5.878;2023-07-13T02:45:30;17.83;59.03
70300;HTU21D;57704;51.112;5.878;2023-07-13T02:47:57;17.80;59.51
70300;HTU21D;57704;51.112;5.878;2023-07-13T02:50:23;17.81;59.76
70300;HTU21D;57704;51.112;5.878;2023-07-13T02:52:48;17.79;59.82
70300;HTU21D;57704;51.112;5.878;2023-07-13T02:55:14;17.76;59.80
70300;HTU21D;57704;51.112;5.878;2023-07-13T02:57:41;17.78;59.67
70300;HTU21D;57704;51.112;5.878;2023-07-13T03:00:07;17.78;59.94
70300;HTU21D;57704;51.112;5.878;2023-07-13T03:02:34;17.72;60.09
70300;HTU21D;57704;51.112;5.878;2023-07-13T03:05:01;17.69;60.35
70300;HTU21D;57704;51.112;5.878;2023-07-13T03:07:30;17.67;60.66
70300;HTU21D;57704;51.112;5.878;2023-07-13T03:09:57;17.68;60.41
70300;HTU21D;57704;51.112;5.878;2023-07-13T03:12:27;17.61;60.63
70300;HTU21D;57704;51.112;5.878;2023-07-13T03:14:53;17.58;60.88
70300;HTU21D;57704;51.112;5.878;2023-07-13T03:17:19;17.59;60.66
70300;HTU21D;57704;51.112;5.878;2023-07-13T03:19:45;17.56;60.98
70300;HTU21D;57704;51.112;5.878;2023-07-13T03:22:17;17.54;61.12
70300;HTU21D;57704;51.112;5.878;2023-07-13T03:24:44;17.56;61.20
70300;HTU21D;57704;51.112;5.878;2023-07-13T03:27:10;17.55;61.17
70300;HTU21D;57704;51.112;5.878;2023-07-13T03:29:39;17.60;60.89
70300;HTU21D;57704;51.112;5.878;2023-07-13T03:32:06;17.60;61.03
70300;HTU21D;57704;51.112;5.878;2023-07-13T03:34:32;17.60;61.44
70300;HTU21D;57704;51.112;5.878;2023-07-13T03:36:59;17.54;61.41
70300;HTU21D;57704;51.112;5.878;2023-07-13T03:39:25;17.53;61.58
70300;HTU21D;57704;51.112;5.878;2023-07-13T03:41:54;17.53;61.37
70300;HTU21D;57704;51.112;5.878;2023-07-13T03:44:20;17.55;61.88
70300;HTU21D;57704;51.112;5.878;2023-07-13T03:46:50;17.56;61.75
70300;HTU21D;57704;51.112;5.878;2023-07-13T03:49:16;17.55;62.02
70300;HTU21D;57704;51.112;5.878;2023-07-13T03:51:41;17.54;61.66
70300;HTU21D;57704;51.112;5.878;2023-07-13T03:54:07;17.52;62.08
70300;HTU21D;57704;51.112;5.878;2023-07-13T03:56:33;17.48;62.03
70300;HTU21D;57704;51.112;5.878;2023-07-13T03:59:01;17.51;61.99
70300;HTU21D;57704;51.112;5.878;2023-07-13T04:01:29;17.49;62.07
70300;HTU21D;57704;51.112;5.878;2023-07-13T04:03:55;17.52;62.37
70300;HTU21D;57704;51.112;5.878;2023-07-13T04:06:28;17.56;61.92
70300;HTU21D;57704;51.112;5.878;2023-07-13T04:08:59;17.50;62.21
70300;HTU21D;57704;51.112;5.878;2023-07-13T04:11:29;17.55;62.37
70300;HTU21D;57704;51.112;5.878;2023-07-13T04:13:55;17.59;62.22
70300;HTU21D;57704;51.112;5.878;2023-07-13T04:16:22;17.63;62.15
70300;HTU21D;57704;51.112;5.878;2023-07-13T04:18:48;17.62;63.11
70300;HTU21D;57704;51.112;5.878;2023-07-13T04:21:15;17.60;62.38
70300;HTU21D;57704;51.112;5.878;2023-07-13T04:23:41;17.58;62.98
70300;HTU21D;57704;51.112;5.878;2023-07-13T04:26:07;17.58;62.94
70300;HTU21D;57704;51.112;5.878;2023-07-13T04:28:34;17.62;62.79
70300;HTU21D;57704;51.112;5.878;2023-07-13T04:31:00;17.63;62.57
70300;HTU21D;57704;51.112;5.878;2023-07-13T04:33:27;17.59;62.87
70300;HTU21D;57704;51.112;5.878;2023-07-13T04:35:55;17.50;63.29
70300;HTU21D;57704;51.112;5.878;2023-07-13T04:38:24;17.47;63.44
70300;HTU21D;57704;51.112;5.878;2023-07-13T04:40:51;17.49;63.73
70300;HTU21D;57704;51.112;5.878;2023-07-13T04:43:18;17.52;65.04
70300;HTU21D;57704;51.112;5.878;2023-07-13T04:45:44;17.51;63.50
70300;HTU21D;57704;51.112;5.878;2023-07-13T04:48:10;17.50;63.84
70300;HTU21D;57704;51.112;5.878;2023-07-13T04:50:37;17.48;63.76
70300;HTU21D;57704;51.112;5.878;2023-07-13T04:53:04;17.50;64.09
70300;HTU21D;57704;51.112;5.878;2023-07-13T04:55:30;17.61;63.73
70300;HTU21D;57704;51.112;5.878;2023-07-13T04:57:57;17.72;63.82
70300;HTU21D;57704;51.112;5.878;2023-07-13T05:00:29;17.78;63.59
70300;HTU21D;57704;51.112;5.878;2023-07-13T05:02:57;17.78;63.67
70300;HTU21D;57704;51.112;5.878;2023-07-13T05:05:25;17.80;63.61
70300;HTU21D;57704;51.112;5.878;2023-07-13T05:07:52;17.93;63.33
70300;HTU21D;57704;51.112;5.878;2023-07-13T05:10:18;17.93;63.44
70300;HTU21D;57704;51.112;5.878;2023-07-13T05:12:45;18.02;63.49
70300;HTU21D;57704;51.112;5.878;2023-07-13T05:15:11;18.12;63.47
70300;HTU21D;57704;51.112;5.878;2023-07-13T05:17:36;18.26;63.32
70300;HTU21D;57704;51.112;5.878;2023-07-13T05:20:05;18.41;62.96
70300;HTU21D;57704;51.112;5.878;2023-07-13T05:22:31;18.55;62.80
70300;HTU21D;57704;51.112;5.878;2023-07-13T05:24:57;18.64;62.53
70300;HTU21D;57704;51.112;5.878;2023-07-13T05:27:23;18.77;62.50
70300;HTU21D;57704;51.112;5.878;2023-07-13T05:29:49;18.87;62.25
70300;HTU21D;57704;51.112;5.878;2023-07-13T05:32:17;18.97;61.97
70300;HTU21D;57704;51.112;5.878;2023-07-13T05:34:43;19.05;61.85
70300;HTU21D;57704;51.112;5.878;2023-07-13T05:37:09;19.09;62.05
70300;HTU21D;57704;51.112;5.878;2023-07-13T05:39:35;19.08;62.19
70300;HTU21D;57704;51.112;5.878;2023-07-13T05:42:01;19.05;61.88
70300;HTU21D;57704;51.112;5.878;2023-07-13T05:44:27;18.91;62.59
70300;HTU21D;57704;51.112;5.878;2023-07-13T05:46:53;18.85;62.63
70300;HTU21D;57704;51.112;5.878;2023-07-13T05:49:21;18.94;62.37
70300;HTU21D;57704;51.112;5.878;2023-07-13T05:51:47;18.97;62.18
70300;HTU21D;57704;51.112;5.878;2023-07-13T05:54:13;18.97;62.44
70300;HTU21D;57704;51.112;5.878;2023-07-13T05:56:39;18.95;62.75
70300;HTU21D;57704;51.112;5.878;2023-07-13T05:59:05;19.05;62.93
70300;HTU21D;57704;51.112;5.878;2023-07-13T06:01:31;19.06;62.28
70300;HTU21D;57704;51.112;5.878;2023-07-13T06:03:57;19.15;62.45
70300;HTU21D;57704;51.112;5.878;2023-07-13T06:06:23;19.31;62.07
70300;HTU21D;57704;51.112;5.878;2023-07-13T06:08:49;19.41;62.02
70300;HTU21D;57704;51.112;5.878;2023-07-13T06:11:21;19.53;61.33
70300;HTU21D;57704;51.112;5.878;2023-07-13T06:13:47;19.52;61.44
70300;HTU21D;57704;51.112;5.878;2023-07-13T06:16:14;19.55;61.31
70300;HTU21D;57704;51.112;5.878;2023-07-13T06:18:40;19.61;61.34
70300;HTU21D;57704;51.112;5.878;2023-07-13T06:21:17;19.66;61.15
70300;HTU21D;57704;51.112;5.878;2023-07-13T06:23:43;19.68;61.07
70300;HTU21D;57704;51.112;5.878;2023-07-13T06:26:10;19.71;60.91
70300;HTU21D;57704;51.112;5.878;2023-07-13T06:28:37;19.71;61.17
70300;HTU21D;57704;51.112;5.878;2023-07-13T06:31:06;19.77;61.02
70300;HTU21D;57704;51.112;5.878;2023-07-13T06:33:33;19.91;61.08
70300;HTU21D;57704;51.112;5.878;2023-07-13T06:35:59;20.10;60.55
70300;HTU21D;57704;51.112;5.878;2023-07-13T06:38:25;20.11;60.35
70300;HTU21D;57704;51.112;5.878;2023-07-13T06:40:51;20.12;60.35
70300;HTU21D;57704;51.112;5.878;2023-07-13T06:43:17;20.18;60.44
70300;HTU21D;57704;51.112;5.878;2023-07-13T06:45:46;20.30;60.35
70300;HTU21D;57704;51.112;5.878;2023-07-13T06:48:13;20.32;60.15
70300;HTU21D;57704;51.112;5.878;2023-07-13T06:50:41;20.35;60.09
70300;HTU21D;57704;51.112;5.878;2023-07-13T06:53:07;20.37;60.03
70300;HTU21D;57704;51.112;5.878;2023-07-13T06:55:33;20.37;60.20
70300;HTU21D;57704;51.112;5.878;2023-07-13T06:57:59;20.32;60.31
70300;HTU21D;57704;51.112;5.878;2023-07-13T07:00:24;20.30;60.19
70300;HTU21D;57704;51.112;5.878;2023-07-13T07:02:50;20.35;60.40
70300;HTU21D;57704;51.112;5.878;2023-07-13T07:05:16;20.46;60.11
70300;HTU21D;57704;51.112;5.878;2023-07-13T07:07:42;20.44;59.99
70300;HTU21D;57704;51.112;5.878;2023-07-13T07:10:08;20.51;60.15
70300;HTU21D;57704;51.112;5.878;2023-07-13T07:12:34;20.65;59.70
70300;HTU21D;57704;51.112;5.878;2023-07-13T07:15:00;20.62;59.73
70300;HTU21D;57704;51.112;5.878;2023-07-13T07:17:26;20.57;59.84
70300;HTU21D;57704;51.112;5.878;2023-07-13T07:19:52;20.64;60.02
70300;HTU21D;57704;51.112;5.878;2023-07-13T07:22:21;20.77;59.53
70300;HTU21D;57704;51.112;5.878;2023-07-13T07:24:47;20.83;59.46
70300;HTU21D;57704;51.112;5.878;2023-07-13T07:27:13;20.88;59.23
70300;HTU21D;57704;51.112;5.878;2023-07-13T07:29:39;20.94;59.29
70300;HTU21D;57704;51.112;5.878;2023-07-13T07:32:05;21.08;59.10
70300;HTU21D;57704;51.112;5.878;2023-07-13T07:34:31;21.13;59.03
70300;HTU21D;57704;51.112;5.878;2023-07-13T07:37:00;21.13;58.83
70300;HTU21D;57704;51.112;5.878;2023-07-13T07:39:27;20.99;59.26
70300;HTU21D;57704;51.112;5.878;2023-07-13T07:41:54;20.95;59.38
70300;HTU21D;57704;51.112;5.878;2023-07-13T07:44:20;20.96;59.48
70300;HTU21D;57704;51.112;5.878;2023-07-13T07:46:46;21.10;59.33
70300;HTU21D;57704;51.112;5.878;2023-07-13T07:49:13;21.23;59.01
70300;HTU21D;57704;51.112;5.878;2023-07-13T07:51:39;21.34;58.90
70300;HTU21D;57704;51.112;5.878;2023-07-13T07:54:05;21.53;58.53
70300;HTU21D;57704;51.112;5.878;2023-07-13T07:56:32;21.68;58.18
70300;HTU21D;57704;51.112;5.878;2023-07-13T07:58:58;21.72;57.95
70300;HTU21D;57704;51.112;5.878;2023-07-13T08:01:24;21.76;57.71
70300;HTU21D;57704;51.112;5.878;2023-07-13T08:03:50;21.78;57.66
70300;HTU21D;57704;51.112;5.878;2023-07-13T08:06:16;21.64;57.98
70300;HTU21D;57704;51.112;5.878;2023-07-13T08:08:42;21.62;58.19
70300;HTU21D;57704;51.112;5.878;2023-07-13T08:11:08;21.68;58.25
70300;HTU21D;57704;51.112;5.878;2023-07-13T08:13:35;21.85;57.71
70300;HTU21D;57704;51.112;5.878;2023-07-13T08:16:03;22.04;57.19
70300;HTU21D;57704;51.112;5.878;2023-07-13T08:18:29;22.03;57.00
70300;HTU21D;57704;51.112;5.878;2023-07-13T08:20:55;22.04;57.19
70300;HTU21D;57704;51.112;5.878;2023-07-13T08:23:25;22.17;57.03
70300;HTU21D;57704;51.112;5.878;2023-07-13T08:25:52;22.34;56.74
70300;HTU21D;57704;51.112;5.878;2023-07-13T08:28:23;22.47;56.47
70300;HTU21D;57704;51.112;5.878;2023-07-13T08:30:49;22.63;56.12
70300;HTU21D;57704;51.112;5.878;2023-07-13T08:33:16;22.80;56.05
70300;HTU21D;57704;51.112;5.878;2023-07-13T08:35:46;23.10;55.05
70300;HTU21D;57704;51.112;5.878;2023-07-13T08:38:12;23.34;54.80
70300;HTU21D;57704;51.112;5.878;2023-07-13T08:40:39;23.55;54.58
70300;HTU21D;57704;51.112;5.878;2023-07-13T08:43:13;23.84;53.46
70300;HTU21D;57704;51.112;5.878;2023-07-13T08:45:49;23.86;53.18
70300;HTU21D;57704;51.112;5.878;2023-07-13T08:54:04;24.66;51.98
70300;HTU21D;57704;51.112;5.878;2023-07-13T08:56:32;24.84;50.53
70300;HTU21D;57704;51.112;5.878;2023-07-13T08:59:11;24.72;50.73
70300;HTU21D;57704;51.112;5.878;2023-07-13T09:04:45;24.69;49.99
70300;HTU21D;57704;51.112;5.878;2023-07-13T09:14:58;24.97;50.53
70300;HTU21D;57704;51.112;5.878;2023-07-13T09:17:30;25.35;49.99
70300;HTU21D;57704;51.112;5.878;2023-07-13T09:20:09;25.67;48.65
70300;HTU21D;57704;51.112;5.878;2023-07-13T09:22:37;25.86;48.38
70300;HTU21D;57704;51.112;5.878;2023-07-13T09:27:55;25.77;48.73
70300;HTU21D;57704;51.112;5.878;2023-07-13T09:33:10;26.42;46.65
70300;HTU21D;57704;51.112;5.878;2023-07-13T09:35:37;26.51;46.61
70300;HTU21D;57704;51.112;5.878;2023-07-13T09:38:12;26.56;46.76
70300;HTU21D;57704;51.112;5.878;2023-07-13T09:41:04;26.84;46.03
70300;HTU21D;57704;51.112;5.878;2023-07-13T09:43:35;27.05;45.63
70300;HTU21D;57704;51.112;5.878;2023-07-13T09:46:01;27.23;44.52
70300;HTU21D;57704;51.112;5.878;2023-07-13T09:48:34;27.36;44.09
70300;HTU21D;57704;51.112;5.878;2023-07-13T09:51:12;27.31;44.19
70300;HTU21D;57704;51.112;5.878;2023-07-13T09:53:42;27.13;44.05
70300;HTU21D;57704;51.112;5.878;2023-07-13T09:56:27;26.81;44.94
70300;HTU21D;57704;51.112;5.878;2023-07-13T09:58:55;26.89;44.89
70300;HTU21D;57704;51.112;5.878;2023-07-13T10:01:36;26.92;44.00
70300;HTU21D;57704;51.112;5.878;2023-07-13T10:04:12;26.41;44.78
70300;HTU21D;57704;51.112;5.878;2023-07-13T10:06:40;26.01;45.62
70300;HTU21D;57704;51.112;5.878;2023-07-13T10:09:09;25.76;46.24
70300;HTU21D;57704;51.112;5.878;2023-07-13T10:11:37;25.63;46.12
70300;HTU21D;57704;51.112;5.878;2023-07-13T10:16:36;25.69;46.43
70300;HTU21D;57704;51.112;5.878;2023-07-13T10:19:12;26.17;45.81
70300;HTU21D;57704;51.112;5.878;2023-07-13T10:21:53;26.60;44.80
70300;HTU21D;57704;51.112;5.878;2023-07-13T10:24:24;26.91;43.93
70300;HTU21D;57704;51.112;5.878;2023-07-13T10:27:19;27.07;43.32
70300;HTU21D;57704;51.112;5.878;2023-07-13T10:29:50;26.83;43.61
70300;HTU21D;57704;51.112;5.878;2023-07-13T10:32:21;26.95;42.87
70300;HTU21D;57704;51.112;5.878;2023-07-13T10:34:49;26.84;43.21
70300;HTU21D;57704;51.112;5.878;2023-07-13T10:37:43;26.68;43.43
70300;HTU21D;57704;51.112;5.878;2023-07-13T10:40:25;26.75;43.66
70300;HTU21D;57704;51.112;5.878;2023-07-13T10:42:57;27.21;42.06
70300;HTU21D;57704;51.112;5.878;2023-07-13T10:45:26;27.65;42.38
70300;HTU21D;57704;51.112;5.878;2023-07-13T10:47:56;28.30;40.80
70300;HTU21D;57704;51.112;5.878;2023-07-13T10:50:25;28.52;39.61
70300;HTU21D;57704;51.112;5.878;2023-07-13T10:52:54;28.41;39.36
70300;HTU21D;57704;51.112;5.878;2023-07-13T10:58:11;28.14;40.20
70300;HTU21D;57704;51.112;5.878;2023-07-13T11:00:47;28.40;39.87
70300;HTU21D;57704;51.112;5.878;2023-07-13T11:03:18;28.93;39.38
70300;HTU21D;57704;51.112;5.878;2023-07-13T11:05:49;29.42;37.90
70300;HTU21D;57704;51.112;5.878;2023-07-13T11:08:32;29.78;37.25
70300;HTU21D;57704;51.112;5.878;2023-07-13T11:10:59;29.95;36.81
70300;HTU21D;57704;51.112;5.878;2023-07-13T11:21:20;29.23;37.53
70300;HTU21D;57704;51.112;5.878;2023-07-13T11:24:01;29.34;37.43
70300;HTU21D;57704;51.112;5.878;2023-07-13T11:31:52;31.13;32.21
70300;HTU21D;57704;51.112;5.878;2023-07-13T11:34:29;30.97;33.53
70300;HTU21D;57704;51.112;5.878;2023-07-13T11:36:58;30.91;33.49
70300;HTU21D;57704;51.112;5.878;2023-07-13T11:39:32;31.01;33.54
70300;HTU21D;57704;51.112;5.878;2023-07-13T11:42:05;31.11;32.94
70300;HTU21D;57704;51.112;5.878;2023-07-13T11:44:34;31.27;33.11
70300;HTU21D;57704;51.112;5.878;2023-07-13T11:47:09;31.49;32.57
70300;HTU21D;57704;51.112;5.878;2023-07-13T11:49:45;31.96;31.22
70300;HTU21D;57704;51.112;5.878;2023-07-13T11:52:18;32.07;29.51
70300;HTU21D;57704;51.112;5.878;2023-07-13T11:54:51;32.60;30.04
70300;HTU21D;57704;51.112;5.878;2023-07-13T11:57:36;32.64;29.35
70300;HTU21D;57704;51.112;5.878;2023-07-13T12:00:13;32.05;30.70
70300;HTU21D;57704;51.112;5.878;2023-07-13T12:02:44;32.08;31.11
70300;HTU21D;57704;51.112;5.878;2023-07-13T12:05:16;32.29;30.08
70300;HTU21D;57704;51.112;5.878;2023-07-13T12:07:43;32.30;29.62
70300;HTU21D;57704;51.112;5.878;2023-07-13T12:12:37;31.83;28.98
70300;HTU21D;57704;51.112;5.878;2023-07-13T12:15:11;31.05;31.80
70300;HTU21D;57704;51.112;5.878;2023-07-13T12:17:38;30.59;31.96
70300;HTU21D;57704;51.112;5.878;2023-07-13T12:20:20;30.06;32.86
70300;HTU21D;57704;51.112;5.878;2023-07-13T12:22:51;29.79;33.62
70300;HTU21D;57704;51.112;5.878;2023-07-13T12:25:18;29.37;33.55
70300;HTU21D;57704;51.112;5.878;2023-07-13T12:27:49;28.68;35.08
70300;HTU21D;57704;51.112;5.878;2023-07-13T12:30:36;28.24;35.21
70300;HTU21D;57704;51.112;5.878;2023-07-13T12:33:12;27.88;36.43
70300;HTU21D;57704;51.112;5.878;2023-07-13T12:35:47;27.67;36.67
70300;HTU21D;57704;51.112;5.878;2023-07-13T12:38:15;27.49;37.28
70300;HTU21D;57704;51.112;5.878;2023-07-13T12:40:41;27.42;37.28
70300;HTU21D;57704;51.112;5.878;2023-07-13T12:43:14;27.31;37.64
70300;HTU21D;57704;51.112;5.878;2023-07-13T12:46:01;27.67;37.37
70300;HTU21D;57704;51.112;5.878;2023-07-13T12:48:27;27.84;36.93
70300;HTU21D;57704;51.112;5.878;2023-07-13T12:50:55;27.81;36.59
70300;HTU21D;57704;51.112;5.878;2023-07-13T12:53:27;27.61;37.49
70300;HTU21D;57704;51.112;5.878;2023-07-13T12:55:58;27.79;37.21
70300;HTU21D;57704;51.112;5.878;2023-07-13T12:58:32;27.99;36.69
70300;HTU21D;57704;51.112;5.878;2023-07-13T13:01:01;28.06;36.79
70300;HTU21D;57704;51.112;5.878;2023-07-13T13:03:34;27.97;36.46
70300;HTU21D;57704;51.112;5.878;2023-07-13T13:06:04;27.72;36.84
70300;HTU21D;57704;51.112;5.878;2023-07-13T13:08:32;27.38;37.24
70300;HTU21D;57704;51.112;5.878;2023-07-13T13:10:58;27.01;37.85
70300;HTU21D;57704;51.112;5.878;2023-07-13T13:13:24;26.81;38.02
70300;HTU21D;57704;51.112;5.878;2023-07-13T13:15:50;26.53;38.10
70300;HTU21D;57704;51.112;5.878;2023-07-13T13:18:19;26.38;38.88
70300;HTU21D;57704;51.112;5.878;2023-07-13T13:20:46;26.60;38.95
70300;HTU21D;57704;51.112;5.878;2023-07-13T13:23:17;27.02;37.86
70300;HTU21D;57704;51.112;5.878;2023-07-13T13:25:48;26.94;37.55
70300;HTU21D;57704;51.112;5.878;2023-07-13T13:28:19;26.78;37.71
70300;HTU21D;57704;51.112;5.878;2023-07-13T13:30:48;26.63;38.17
70300;HTU21D;57704;51.112;5.878;2023-07-13T13:33:16;26.56;38.28
70300;HTU21D;57704;51.112;5.878;2023-07-13T13:35:43;26.42;38.49
70300;HTU21D;57704;51.112;5.878;2023-07-13T13:38:17;26.23;38.82
70300;HTU21D;57704;51.112;5.878;2023-07-13T13:40:45;26.07;39.05
70300;HTU21D;57704;51.112;5.878;2023-07-13T13:43:20;25.80;40.09
70300;HTU21D;57704;51.112;5.878;2023-07-13T13:45:46;25.24;41.58
70300;HTU21D;57704;51.112;5.878;2023-07-13T13:48:19;24.79;44.07
70300;HTU21D;57704;51.112;5.878;2023-07-13T13:50:48;24.57;43.12
70300;HTU21D;57704;51.112;5.878;2023-07-13T13:53:14;24.53;43.35
70300;HTU21D;57704;51.112;5.878;2023-07-13T13:55:40;24.54;43.49
70300;HTU21D;57704;51.112;5.878;2023-07-13T13:58:08;24.58;43.27
70300;HTU21D;57704;51.112;5.878;2023-07-13T14:00:36;24.58;43.11
70300;HTU21D;57704;51.112;5.878;2023-07-13T14:03:02;24.55;43.19
70300;HTU21D;57704;51.112;5.878;2023-07-13T14:05:29;24.54;43.41
70300;HTU21D;57704;51.112;5.878;2023-07-13T14:07:56;24.35;44.11
70300;HTU21D;57704;51.112;5.878;2023-07-13T14:10:26;24.01;45.39
70300;HTU21D;57704;51.112;5.878;2023-07-13T14:12:55;23.68;46.85
70300;HTU21D;57704;51.112;5.878;2023-07-13T14:15:28;23.47;47.53
70300;HTU21D;57704;51.112;5.878;2023-07-13T14:17:57;23.31;47.28
70300;HTU21D;57704;51.112;5.878;2023-07-13T14:20:24;23.22;47.99
70300;HTU21D;57704;51.112;5.878;2023-07-13T14:22:52;23.18;47.94
70300;HTU21D;57704;51.112;5.878;2023-07-13T14:25:20;23.18;48.16
70300;HTU21D;57704;51.112;5.878;2023-07-13T14:27:49;23.21;48.42
70300;HTU21D;57704;51.112;5.878;2023-07-13T14:30:20;23.23;48.15
70300;HTU21D;57704;51.112;5.878;2023-07-13T14:32:46;23.12;48.89
70300;HTU21D;57704;51.112;5.878;2023-07-13T14:35:14;23.09;48.71
70300;HTU21D;57704;51.112;5.878;2023-07-13T14:37:41;23.06;49.01
70300;HTU21D;57704;51.112;5.878;2023-07-13T14:40:21;23.00;49.06
70300;HTU21D;57704;51.112;5.878;2023-07-13T14:42:49;22.96;49.17
70300;HTU21D;57704;51.112;5.878;2023-07-13T14:45:17;22.96;49.11
70300;HTU21D;57704;51.112;5.878;2023-07-13T14:47:44;22.94;49.11
70300;HTU21D;57704;51.112;5.878;2023-07-13T14:50:17;22.86;49.26
70300;HTU21D;57704;51.112;5.878;2023-07-13T14:52:45;22.93;49.45
70300;HTU21D;57704;51.112;5.878;2023-07-13T14:55:17;23.08;49.31
70300;HTU21D;57704;51.112;5.878;2023-07-13T14:57:44;23.13;49.05
70300;HTU21D;57704;51.112;5.878;2023-07-13T15:00:20;23.07;49.31
70300;HTU21D;57704;51.112;5.878;2023-07-13T15:02:56;23.09;49.52
70300;HTU21D;57704;51.112;5.878;2023-07-13T15:05:26;23.16;49.50
70300;HTU21D;57704;51.112;5.878;2023-07-13T15:07:53;23.12;49.37
70300;HTU21D;57704;51.112;5.878;2023-07-13T15:10:24;23.14;49.50
70300;HTU21D;57704;51.112;5.878;2023-07-13T15:13:00;23.20;49.58
70300;HTU21D;57704;51.112;5.878;2023-07-13T15:15:35;23.25;50.05
70300;HTU21D;57704;51.112;5.878;2023-07-13T15:18:02;23.22;50.07
70300;HTU21D;57704;51.112;5.878;2023-07-13T15:20:33;23.23;49.65
70300;HTU21D;57704;51.112;5.878;2023-07-13T15:23:02;23.24;49.96
70300;HTU21D;57704;51.112;5.878;2023-07-13T15:25:31;23.35;49.62
70300;HTU21D;57704;51.112;5.878;2023-07-13T15:28:00;23.56;49.02
70300;HTU21D;57704;51.112;5.878;2023-07-13T15:30:29;23.72;48.76
70300;HTU21D;57704;51.112;5.878;2023-07-13T15:33:00;23.95;48.57
70300;HTU21D;57704;51.112;5.878;2023-07-13T15:35:28;24.15;47.82
70300;HTU21D;57704;51.112;5.878;2023-07-13T15:37:54;24.24;47.73
70300;HTU21D;57704;51.112;5.878;2023-07-13T15:40:20;24.36;47.49
70300;HTU21D;57704;51.112;5.878;2023-07-13T15:42:50;24.44;46.80
70300;HTU21D;57704;51.112;5.878;2023-07-13T15:45:22;24.46;46.70
70300;HTU21D;57704;51.112;5.878;2023-07-13T15:47:50;24.58;46.73
70300;HTU21D;57704;51.112;5.878;2023-07-13T15:50:19;24.82;46.35
70300;HTU21D;57704;51.112;5.878;2023-07-13T15:52:49;24.86;45.83
70300;HTU21D;57704;51.112;5.878;2023-07-13T15:55:15;24.89;45.98
70300;HTU21D;57704;51.112;5.878;2023-07-13T15:57:51;25.06;45.62
70300;HTU21D;57704;51.112;5.878;2023-07-13T16:00:24;25.07;45.18
70300;HTU21D;57704;51.112;5.878;2023-07-13T16:02:51;25.07;44.98
70300;HTU21D;57704;51.112;5.878;2023-07-13T16:05:18;25.05;45.20
70300;HTU21D;57704;51.112;5.878;2023-07-13T16:07:46;25.05;45.13
70300;HTU21D;57704;51.112;5.878;2023-07-13T16:10:19;25.04;45.10